Time;durP1;ratioP1;P1;durP2;ratioP2;P2;SDS_P1;SDS_P2;PMS_P1;PMS_P2;Temp;Humidity;BMP_temperature;BMP_pressure;BME280_temperature;BME280_humidity;BME280_pressure;Samples;Min_cycle;Max_cycle;Signal;HPM_P1;HPM_P2
2022/09/09 00:00:49;;;;;;;7.38;1.08;;;16.10;99.90;;;;;;4190842;28;20211;-90
2022/09/09 00:02:55;;;;;;;10.25;1.00;;;16.00;99.90;;;;;;4170444;28;20518;-90
2022/09/09 00:05:40;;;;;;;5.05;0.80;;;16.00;99.90;;;;;;4203857;28;20182;-91
2022/09/09 00:07:48;;;;;;;3.95;1.00;;;15.90;99.90;;;;;;4175519;28;20179;-90
2022/09/09 00:10:16;;;;;;;4.05;0.93;;;15.70;99.90;;;;;;4188297;28;20211;-90
2022/09/09 00:12:21;;;;;;;5.20;1.02;;;15.60;99.90;;;;;;4205341;28;20182;-90
2022/09/09 00:14:45;;;;;;;4.78;1.00;;;15.50;99.90;;;;;;4186523;28;20235;-90
2022/09/09 00:16:56;;;;;;;7.10;1.27;;;15.50;99.90;;;;;;4190619;28;20183;-90
2022/09/09 00:19:21;;;;;;;7.90;0.98;;;15.40;99.90;;;;;;4191123;28;20592;-90
2022/09/09 00:21:42;;;;;;;5.47;0.82;;;15.30;99.90;;;;;;4187488;28;20230;-90
2022/09/09 00:23:52;;;;;;;4.13;0.95;;;15.40;99.90;;;;;;4188924;28;20172;-90
2022/09/09 00:26:17;;;;;;;3.83;1.10;;;15.40;99.90;;;;;;4185948;28;20155;-90
2022/09/09 00:28:27;;;;;;;9.35;1.50;;;15.40;99.90;;;;;;4187973;28;20175;-90
2022/09/09 00:30:40;;;;;;;6.20;1.20;;;15.50;99.90;;;;;;4186463;28;20222;-91
2022/09/09 00:32:41;;;;;;;12.27;1.60;;;15.50;99.90;;;;;;4189291;28;20237;-91
2022/09/09 00:34:53;;;;;;;8.18;1.50;;;15.40;99.90;;;;;;4170809;28;20680;-90
2022/09/09 00:36:55;;;;;;;9.73;1.42;;;15.50;99.90;;;;;;4187684;28;20235;-92
2022/09/09 00:38:59;;;;;;;9.70;1.75;;;15.40;99.90;;;;;;4167473;28;20222;-90
2022/09/09 00:41:29;;;;;;;7.13;1.85;;;15.40;99.90;;;;;;4168374;28;20277;-91
2022/09/09 00:43:38;;;;;;;11.32;2.25;;;15.40;99.90;;;;;;4152264;28;20199;-90
2022/09/09 00:46:15;;;;;;;9.85;1.90;;;15.50;99.90;;;;;;4170595;28;20230;-91
2022/09/09 00:48:16;;;;;;;5.47;1.88;;;15.60;99.90;;;;;;4207806;28;20197;-90
2022/09/09 00:50:34;;;;;;;11.05;2.25;;;15.50;99.90;;;;;;4175044;28;20195;-89
2022/09/09 00:52:46;;;;;;;7.82;2.33;;;15.60;99.90;;;;;;4188340;28;20233;-90
2022/09/09 00:55:04;;;;;;;9.18;2.17;;;15.60;99.90;;;;;;4185032;28;20154;-90
2022/09/09 00:57:28;;;;;;;12.15;2.78;;;15.70;99.90;;;;;;4177684;28;20167;-90
2022/09/09 00:59:45;;;;;;;10.73;2.58;;;15.70;99.90;;;;;;4190080;28;20163;-90
2022/09/09 01:01:46;;;;;;;9.10;2.65;;;15.70;99.90;;;;;;4190748;28;20234;-89
2022/09/09 01:03:54;;;;;;;10.05;3.00;;;15.70;99.90;;;;;;4189507;28;20172;-89
2022/09/09 01:06:18;;;;;;;8.77;2.60;;;15.60;99.90;;;;;;4168590;28;20176;-89
2022/09/09 01:08:48;;;;;;;11.27;2.78;;;15.70;99.90;;;;;;4171024;28;20177;-89
2022/09/09 01:10:53;;;;;;;10.40;2.83;;;15.80;99.90;;;;;;4190280;28;20230;-89
2022/09/09 01:13:30;;;;;;;10.05;3.20;;;15.70;99.90;;;;;;4191358;28;20172;-90
2022/09/09 01:15:33;;;;;;;9.40;2.83;;;15.80;99.90;;;;;;4175026;28;20687;-91
2022/09/09 01:17:51;;;;;;;8.75;2.78;;;15.80;99.90;;;;;;4168541;28;20626;-91
2022/09/09 01:20:12;;;;;;;11.20;3.15;;;16.00;99.90;;;;;;4185850;28;20190;-90
2022/09/09 01:22:36;;;;;;;8.07;2.65;;;16.00;99.90;;;;;;4172419;28;20180;-89
2022/09/09 01:25:05;;;;;;;11.43;2.72;;;15.90;99.90;;;;;;4190672;28;20152;-89
2022/09/09 01:27:37;;;;;;;11.43;3.17;;;15.90;99.90;;;;;;4183406;28;20167;-89
2022/09/09 01:29:39;;;;;;;14.65;3.13;;;15.80;99.90;;;;;;4184546;28;20181;-90
2022/09/09 01:31:59;;;;;;;10.75;3.55;;;15.70;99.90;;;;;;4202914;28;20179;-89
2022/09/09 01:34:00;;;;;;;11.95;3.90;;;15.90;99.90;;;;;;4168090;28;20278;-90
2022/09/09 01:36:09;;;;;;;15.02;3.13;;;16.00;99.90;;;;;;4188174;22;20214;-95
2022/09/09 01:38:21;;;;;;;14.95;3.30;;;15.90;99.90;;;;;;4181209;28;20179;-94
2022/09/09 01:40:25;;;;;;;11.13;3.00;;;15.70;99.90;;;;;;4164814;28;20298;-93
2022/09/09 01:42:27;;;;;;;9.13;2.75;;;15.70;99.90;;;;;;4165222;28;20180;-92
2022/09/09 01:44:29;;;;;;;9.50;2.47;;;15.90;99.90;;;;;;4164775;28;20548;-94
2022/09/09 01:46:30;;;;;;;13.00;2.63;;;15.70;99.90;;;;;;4181638;28;20182;-93
2022/09/09 01:48:32;;;;;;;9.60;2.30;;;15.70;99.90;;;;;;4164635;28;20191;-93
2022/09/09 01:50:39;;;;;;;15.20;2.70;;;15.60;99.90;;;;;;4165016;28;20584;-93
2022/09/09 01:52:42;;;;;;;14.00;2.17;;;15.50;99.90;;;;;;4164842;28;20176;-94
2022/09/09 01:54:46;;;;;;;11.05;2.05;;;15.50;99.90;;;;;;4165434;28;20251;-94
2022/09/09 01:57:15;;;;;;;9.98;1.88;;;15.40;99.90;;;;;;4164917;28;20262;-93
2022/09/09 01:59:33;;;;;;;10.48;2.28;;;15.40;99.90;;;;;;4165079;28;20164;-95
2022/09/09 02:01:52;;;;;;;10.82;2.33;;;15.60;99.90;;;;;;4164519;28;20211;-94
2022/09/09 02:03:57;;;;;;;13.18;2.08;;;15.60;99.90;;;;;;4164870;28;20247;-95
2022/09/09 02:06:19;;;;;;;7.35;1.80;;;15.60;99.90;;;;;;4164396;28;20172;-93
2022/09/09 02:08:28;;;;;;;7.47;1.80;;;15.50;99.90;;;;;;4180930;28;20559;-95
2022/09/09 02:11:01;;;;;;;9.18;1.70;;;15.40;99.90;;;;;;4165168;28;20287;-94
2022/09/09 02:13:14;;;;;;;10.75;2.38;;;15.50;99.90;;;;;;4165791;28;20181;-94
2022/09/09 02:15:43;;;;;;;6.28;1.70;;;15.50;99.90;;;;;;4164598;28;20203;-94
2022/09/09 02:17:49;;;;;;;11.48;1.63;;;15.40;99.90;;;;;;4164625;28;20644;-94
2022/09/09 02:20:07;;;;;;;9.00;1.83;;;15.40;99.90;;;;;;4164373;28;20183;-94
2022/09/09 02:22:21;;;;;;;9.05;1.90;;;15.40;99.90;;;;;;4165838;28;20640;-93
2022/09/09 02:24:22;;;;;;;13.55;1.88;;;15.40;99.90;;;;;;4164540;28;20263;-94
2022/09/09 02:26:40;;;;;;;13.40;1.67;;;15.50;99.90;;;;;;4165440;28;20172;-92
2022/09/09 02:28:42;;;;;;;13.23;1.90;;;15.50;99.90;;;;;;4164484;28;20260;-94
2022/09/09 02:30:46;;;;;;;13.52;1.75;;;15.40;99.90;;;;;;4164481;28;20249;-93
2022/09/09 02:32:52;;;;;;;9.07;1.70;;;15.50;99.90;;;;;;4164641;28;20183;-94
2022/09/09 02:35:00;;;;;;;16.88;1.58;;;15.40;99.90;;;;;;4164448;28;20506;-95
2022/09/09 02:37:03;;;;;;;15.57;1.70;;;15.40;99.90;;;;;;4165354;28;20198;-94
2022/09/09 02:39:07;;;;;;;12.63;2.08;;;15.50;99.90;;;;;;4167508;28;20182;-92
2022/09/09 02:41:10;;;;;;;13.75;1.98;;;15.50;99.90;;;;;;4167393;28;20609;-94
2022/09/09 02:43:11;;;;;;;8.10;1.63;;;15.50;99.90;;;;;;4184172;28;20176;-93
2022/09/09 02:45:16;;;;;;;9.73;1.33;;;15.40;99.90;;;;;;4167585;28;20172;-94
2022/09/09 02:47:34;;;;;;;13.32;1.77;;;15.40;99.90;;;;;;4167678;28;20580;-94
2022/09/09 02:49:55;;;;;;;6.10;1.50;;;15.40;99.90;;;;;;4168287;28;20206;-93
2022/09/09 02:52:05;;;;;;;9.95;1.70;;;15.40;99.90;;;;;;4167451;28;20187;-94
2022/09/09 02:54:16;;;;;;;14.63;1.83;;;15.30;99.90;;;;;;4167503;28;20176;-94
2022/09/09 02:56:23;;;;;;;12.57;1.90;;;15.40;99.90;;;;;;4167450;28;20188;-94
2022/09/09 02:58:24;;;;;;;10.60;1.67;;;15.40;99.90;;;;;;4167618;28;20172;-94
2022/09/09 03:00:35;;;;;;;16.67;1.92;;;15.50;99.90;;;;;;4168493;28;20679;-93
2022/09/09 03:02:37;;;;;;;20.40;2.00;;;15.50;99.90;;;;;;4167341;28;20176;-94
2022/09/09 03:04:43;;;;;;;9.30;1.60;;;15.50;99.90;;;;;;4167500;28;20600;-95
2022/09/09 03:06:44;;;;;;;15.23;2.13;;;15.50;99.90;;;;;;4167217;28;20172;-94
2022/09/09 03:08:54;;;;;;;10.32;1.50;;;15.50;99.90;;;;;;4168386;28;20168;-94
2022/09/09 03:11:02;;;;;;;10.02;1.65;;;15.50;99.90;;;;;;4167609;28;20220;-94
2022/09/09 03:13:06;;;;;;;8.18;1.33;;;15.50;99.90;;;;;;4167406;28;20172;-94
2022/09/09 03:15:11;;;;;;;13.32;1.50;;;15.40;99.90;;;;;;4167239;28;20238;-95
2022/09/09 03:17:13;;;;;;;12.20;1.70;;;15.40;99.90;;;;;;4167101;28;20323;-94
2022/09/09 03:19:20;;;;;;;16.33;1.83;;;15.40;99.90;;;;;;4167810;28;20172;-92
2022/09/09 03:21:22;;;;;;;15.52;2.03;;;15.50;99.90;;;;;;4183153;28;20235;-93
2022/09/09 03:23:24;;;;;;;13.43;1.67;;;15.50;99.90;;;;;;4183575;28;20180;-93
2022/09/09 03:25:25;;;;;;;11.27;1.80;;;15.60;99.90;;;;;;4166972;28;20169;-94
2022/09/09 03:27:27;;;;;;;6.63;1.48;;;15.60;99.90;;;;;;4166880;28;20664;-93
2022/09/09 03:29:29;;;;;;;13.80;1.90;;;15.50;99.90;;;;;;4166826;28;20231;-93
2022/09/09 03:31:33;;;;;;;12.68;1.83;;;15.50;99.90;;;;;;4167102;28;20196;-94
2022/09/09 03:33:36;;;;;;;11.65;1.95;;;15.50;99.90;;;;;;4166884;28;20254;-93
2022/09/09 03:35:37;;;;;;;19.05;2.10;;;15.60;99.90;;;;;;4166715;28;20160;-94
2022/09/09 03:37:38;;;;;;;13.13;1.77;;;15.70;99.90;;;;;;4166714;28;20174;-94
2022/09/09 03:39:39;;;;;;;18.77;2.10;;;15.70;99.90;;;;;;4166643;28;20561;-93
2022/09/09 03:41:41;;;;;;;8.77;1.88;;;15.90;99.90;;;;;;4182960;28;20306;-94
2022/09/09 03:43:41;;;;;;;11.20;2.00;;;16.00;99.90;;;;;;4183134;28;20171;-94
2022/09/09 03:45:49;;;;;;;9.93;1.38;;;16.00;99.90;;;;;;4166654;28;20211;-94
2022/09/09 03:47:50;;;;;;;9.38;1.70;;;15.90;99.90;;;;;;4166695;28;20179;-94
2022/09/09 03:49:51;;;;;;;13.13;1.50;;;15.80;99.90;;;;;;4183085;28;20164;-93
2022/09/09 03:51:51;;;;;;;11.20;1.92;;;15.80;99.90;;;;;;4166383;28;20182;-92
2022/09/09 03:53:55;;;;;;;10.48;1.75;;;15.80;99.90;;;;;;4166812;28;20176;-94
2022/09/09 03:55:59;;;;;;;10.13;1.55;;;15.90;99.90;;;;;;4166571;28;20169;-93
2022/09/09 03:58:00;;;;;;;11.75;1.70;;;15.80;99.90;;;;;;4166617;28;20207;-96
2022/09/09 04:00:07;;;;;;;13.93;1.90;;;15.80;99.90;;;;;;4166424;28;20604;-94
2022/09/09 04:02:17;;;;;;;6.72;1.52;;;15.80;99.90;;;;;;4183197;28;20679;-95
2022/09/09 04:04:19;;;;;;;19.63;1.63;;;15.80;99.90;;;;;;4166459;28;20175;-95
2022/09/09 04:06:21;;;;;;;15.88;1.88;;;15.80;99.90;;;;;;4166441;28;20293;-95
2022/09/09 04:08:25;;;;;;;13.60;1.63;;;15.80;99.90;;;;;;4166753;28;20584;-93
2022/09/09 04:10:26;;;;;;;8.38;1.73;;;15.70;99.90;;;;;;4166114;28;20196;-94
2022/09/09 04:12:28;;;;;;;10.45;1.80;;;15.60;99.90;;;;;;4166364;28;20544;-91
2022/09/09 04:14:29;;;;;;;11.45;1.33;;;15.50;99.90;;;;;;4166226;28;20172;-93
2022/09/09 04:16:32;;;;;;;12.93;1.92;;;15.60;99.90;;;;;;4166386;28;20231;-94
2022/09/09 04:18:34;;;;;;;14.68;1.85;;;15.70;99.90;;;;;;4166066;28;20625;-93
2022/09/09 04:20:35;;;;;;;10.68;1.48;;;15.70;99.90;;;;;;4165978;28;20258;-94
2022/09/09 04:22:38;;;;;;;7.72;1.30;;;15.80;99.90;;;;;;4166252;28;20181;-94
2022/09/09 04:24:39;;;;;;;13.68;1.88;;;15.80;99.90;;;;;;4165847;28;20680;-93
2022/09/09 04:26:40;;;;;;;11.13;1.60;;;15.80;99.90;;;;;;4182384;28;20175;-94
2022/09/09 04:28:41;;;;;;;17.23;2.03;;;15.90;99.90;;;;;;4165708;28;20219;-93
2022/09/09 04:30:50;;;;;;;11.25;1.48;;;15.90;99.90;;;;;;4166761;28;20200;-92
2022/09/09 04:32:51;;;;;;;13.18;1.70;;;15.80;99.90;;;;;;4165918;28;20263;-94
2022/09/09 04:34:52;;;;;;;13.55;1.50;;;15.70;99.90;;;;;;4182528;28;20159;-93
2022/09/09 04:36:53;;;;;;;10.30;1.60;;;15.50;99.90;;;;;;4165551;28;20184;-94
2022/09/09 04:38:54;;;;;;;16.42;1.75;;;15.50;99.90;;;;;;4165858;28;20217;-94
2022/09/09 04:40:55;;;;;;;12.27;1.63;;;15.50;99.90;;;;;;4165746;28;20208;-92
2022/09/09 04:43:00;;;;;;;12.07;1.40;;;15.50;99.90;;;;;;4165507;28;20214;-94
2022/09/09 04:45:02;;;;;;;15.75;1.95;;;15.60;99.90;;;;;;4165768;28;20591;-92
2022/09/09 04:47:02;;;;;;;9.75;1.70;;;15.70;99.90;;;;;;4165746;28;20176;-93
2022/09/09 04:49:03;;;;;;;14.55;1.85;;;15.60;99.90;;;;;;4165756;28;20275;-92
2022/09/09 04:51:09;;;;;;;17.92;2.00;;;15.50;99.90;;;;;;4165686;28;20645;-92
2022/09/09 04:53:11;;;;;;;15.23;2.40;;;15.60;99.90;;;;;;4165673;28;20640;-93
2022/09/09 04:55:13;;;;;;;14.80;2.30;;;15.70;99.90;;;;;;4165481;28;20211;-94
2022/09/09 04:57:16;;;;;;;12.80;1.88;;;15.60;99.90;;;;;;4165687;28;20200;-93
2022/09/09 04:59:17;;;;;;;12.90;2.00;;;15.70;99.90;;;;;;4165051;28;20183;-94
2022/09/09 05:01:23;;;;;;;18.48;2.03;;;15.60;99.90;;;;;;4165642;28;20216;-92
2022/09/09 05:03:26;;;;;;;16.02;1.92;;;15.50;99.90;;;;;;4165412;28;20206;-93
2022/09/09 05:05:28;;;;;;;12.65;2.10;;;15.50;99.90;;;;;;4181724;28;20168;-94
2022/09/09 05:07:31;;;;;;;13.77;1.92;;;15.50;99.90;;;;;;4165430;28;20171;-92
2022/09/09 05:09:32;;;;;;;20.60;2.20;;;15.70;99.90;;;;;;4165327;28;20179;-93
2022/09/09 05:11:38;;;;;;;13.07;2.10;;;15.60;99.90;;;;;;4165181;28;20560;-94
2022/09/09 05:13:59;;;;;;;11.25;1.90;;;15.60;99.90;;;;;;4181667;28;20607;-96
2022/09/09 05:16:00;;;;;;;14.25;1.83;;;15.70;99.90;;;;;;4165306;28;20168;-94
2022/09/09 05:18:04;;;;;;;12.88;2.13;;;15.70;99.90;;;;;;4165405;28;20180;-94
2022/09/09 05:20:06;;;;;;;14.75;1.98;;;15.70;99.90;;;;;;4164953;28;20164;-93
2022/09/09 05:22:07;;;;;;;13.18;1.92;;;15.70;99.90;;;;;;4164925;28;20735;-93
2022/09/09 05:24:16;;;;;;;12.13;1.73;;;15.80;99.90;;;;;;4183613;28;20175;-93
2022/09/09 05:26:19;;;;;;;15.30;2.17;;;15.80;99.90;;;;;;4166404;28;20179;-94
2022/09/09 05:28:24;;;;;;;9.25;1.85;;;15.90;99.90;;;;;;4167079;28;20180;-94
2022/09/09 05:30:26;;;;;;;11.05;1.80;;;16.00;99.90;;;;;;4166842;28;20695;-94
2022/09/09 05:32:31;;;;;;;16.83;2.30;;;16.00;99.90;;;;;;4166174;28;20264;-94
2022/09/09 05:34:33;;;;;;;10.30;1.92;;;15.90;99.90;;;;;;4183655;28;20199;-93
2022/09/09 05:36:34;;;;;;;13.48;2.17;;;15.90;99.90;;;;;;4184179;28;20270;-92
2022/09/09 05:38:35;;;;;;;17.70;2.40;;;15.80;99.90;;;;;;4167958;28;20176;-94
2022/09/09 05:40:36;;;;;;;14.93;1.67;;;15.60;99.90;;;;;;4182455;28;20211;-94
2022/09/09 05:42:38;;;;;;;13.25;1.77;;;15.70;99.90;;;;;;4164931;28;20230;-96
2022/09/09 05:44:39;;;;;;;11.90;1.90;;;15.80;99.90;;;;;;4181355;28;20258;-94
2022/09/09 05:46:41;;;;;;;10.10;1.63;;;15.80;99.90;;;;;;4165044;28;20177;-95
2022/09/09 05:48:46;;;;;;;11.27;1.70;;;15.70;99.90;;;;;;4182698;28;20172;-94
2022/09/09 05:50:54;;;;;;;14.07;2.05;;;15.80;99.90;;;;;;4168487;28;20275;-93
2022/09/09 05:52:55;;;;;;;8.25;1.70;;;15.70;99.90;;;;;;4165035;28;20254;-93
2022/09/09 05:54:56;;;;;;;14.43;1.90;;;15.60;99.90;;;;;;4164638;28;20514;-92
2022/09/09 05:56:58;;;;;;;15.50;1.73;;;15.60;99.90;;;;;;4164939;28;20212;-96
2022/09/09 05:58:59;;;;;;;15.50;1.77;;;15.70;99.90;;;;;;4181457;28;20171;-94
2022/09/09 06:01:13;;;;;;;12.88;1.67;;;15.90;99.90;;;;;;4164874;28;20275;-94
2022/09/09 06:03:16;;;;;;;8.68;1.60;;;16.20;99.90;;;;;;4165009;28;20229;-94
2022/09/09 06:05:18;;;;;;;10.77;1.88;;;16.20;99.90;;;;;;4180946;28;20168;-94
2022/09/09 06:07:20;;;;;;;12.02;1.40;;;16.30;99.90;;;;;;4164651;28;20180;-95
2022/09/09 06:09:21;;;;;;;9.35;1.60;;;16.30;99.90;;;;;;4165029;28;20258;-93
2022/09/09 06:11:24;;;;;;;11.88;1.83;;;16.20;99.90;;;;;;4164515;28;20243;-94
2022/09/09 06:13:25;;;;;;;13.35;2.38;;;16.20;99.90;;;;;;4168473;28;20179;-96
2022/09/09 06:15:26;;;;;;;11.05;1.52;;;16.30;99.90;;;;;;4168032;28;20168;-93
2022/09/09 06:17:28;;;;;;;11.68;1.52;;;16.30;99.90;;;;;;4168033;28;20176;-94
2022/09/09 06:19:28;;;;;;;15.75;2.10;;;16.40;99.90;;;;;;4168134;28;20229;-95
2022/09/09 06:21:40;;;;;;;16.60;2.00;;;16.50;99.90;;;;;;4168481;28;20214;-95
2022/09/09 06:23:47;;;;;;;12.90;2.08;;;16.60;99.90;;;;;;4168106;28;20636;-94
2022/09/09 06:25:48;;;;;;;10.40;1.38;;;16.70;99.90;;;;;;4167680;28;20175;-95
2022/09/09 06:27:49;;;;;;;11.00;1.52;;;16.70;99.90;;;;;;4167892;28;20168;-96
2022/09/09 06:29:50;;;;;;;12.10;1.80;;;16.80;99.90;;;;;;4167949;28;20219;-93
2022/09/09 06:31:51;;;;;;;9.27;1.92;;;16.70;99.90;;;;;;4168185;28;20200;-95
2022/09/09 06:33:57;;;;;;;16.88;1.77;;;16.60;99.90;;;;;;4168693;28;20168;-93
2022/09/09 06:35:58;;;;;;;13.10;1.67;;;16.70;99.90;;;;;;4167778;28;20334;-94
2022/09/09 06:37:59;;;;;;;9.48;1.52;;;16.60;99.90;;;;;;4167784;28;20525;-92
2022/09/09 06:40:01;;;;;;;12.65;2.10;;;16.50;99.90;;;;;;4185043;28;20202;-95
2022/09/09 06:42:03;;;;;;;17.13;2.10;;;16.40;99.90;;;;;;4184076;28;20191;-94
2022/09/09 06:44:22;;;;;;;15.75;1.73;;;16.50;99.90;;;;;;4184359;28;20235;-94
2022/09/09 06:46:32;;;;;;;10.57;1.80;;;16.60;99.90;;;;;;4167752;28;20179;-96
2022/09/09 06:48:34;;;;;;;9.85;1.80;;;16.70;99.90;;;;;;4168453;28;20237;-94
2022/09/09 06:50:38;;;;;;;19.35;2.08;;;16.80;99.90;;;;;;4167815;28;20196;-93
2022/09/09 06:53:06;;;;;;;15.82;2.15;;;16.70;99.90;;;;;;4168154;28;20187;-95
2022/09/09 06:55:09;;;;;;;11.75;1.70;;;16.80;99.90;;;;;;4201949;28;20170;-93
2022/09/09 06:57:20;;;;;;;10.05;1.40;;;16.80;99.90;;;;;;4184120;28;20179;-95
2022/09/09 06:59:44;;;;;;;13.23;1.92;;;16.80;99.90;;;;;;4187502;28;20179;-95
2022/09/09 07:01:46;;;;;;;10.25;1.52;;;16.90;99.90;;;;;;4169890;28;20219;-93
2022/09/09 07:03:52;;;;;;;7.18;1.67;;;16.90;99.90;;;;;;4187085;28;20179;-94
2022/09/09 07:06:24;;;;;;;12.32;1.50;;;17.00;99.90;;;;;;4174394;28;20218;-94
2022/09/09 07:08:30;;;;;;;10.32;1.70;;;16.90;99.90;;;;;;4170926;28;20176;-94
2022/09/09 07:10:53;;;;;;;11.48;1.70;;;17.10;99.90;;;;;;4172124;28;20195;-96
2022/09/09 07:12:56;;;;;;;15.05;2.08;;;17.10;99.90;;;;;;4170346;28;20176;-94
2022/09/09 07:15:00;;;;;;;13.65;1.70;;;17.10;99.90;;;;;;4186552;28;20175;-93
2022/09/09 07:17:03;;;;;;;13.23;1.73;;;16.90;99.90;;;;;;4169103;28;20214;-92
2022/09/09 07:19:10;;;;;;;12.00;1.48;;;17.00;99.90;;;;;;4168592;28;20176;-92
2022/09/09 07:21:15;;;;;;;10.02;1.70;;;16.90;99.90;;;;;;4167400;28;20672;-95
2022/09/09 07:23:17;;;;;;;12.68;1.50;;;16.80;99.90;;;;;;4167429;28;20187;-93
2022/09/09 07:25:19;;;;;;;15.30;1.95;;;16.80;99.90;;;;;;4167582;28;20270;-94
2022/09/09 07:27:23;;;;;;;11.43;1.52;;;16.80;99.90;;;;;;4170183;28;20155;-96
2022/09/09 07:29:27;;;;;;;8.95;1.40;;;16.80;99.90;;;;;;4168716;28;20180;-96
2022/09/09 07:31:35;;;;;;;10.73;1.55;;;16.80;99.90;;;;;;4168646;28;20191;-95
2022/09/09 07:33:36;;;;;;;10.18;1.45;;;16.70;99.90;;;;;;4169077;28;20178;-94
2022/09/09 07:35:37;;;;;;;9.80;1.52;;;16.70;99.90;;;;;;4183822;28;20293;-95
2022/09/09 07:37:38;;;;;;;14.05;1.45;;;16.80;99.90;;;;;;4167155;28;20180;-95
2022/09/09 07:39:39;;;;;;;11.63;1.55;;;16.90;99.90;;;;;;4183196;28;20199;-95
2022/09/09 07:41:46;;;;;;;10.80;1.58;;;16.90;99.90;;;;;;4166522;28;20247;-93
2022/09/09 07:43:49;;;;;;;9.77;1.65;;;17.20;99.90;;;;;;4166895;28;20168;-95
2022/09/09 07:45:57;;;;;;;11.77;1.63;;;17.10;99.90;;;;;;4167178;28;20211;-94
2022/09/09 07:47:58;;;;;;;15.70;1.80;;;17.00;99.90;;;;;;4166916;28;20262;-96
2022/09/09 07:50:02;;;;;;;14.43;1.85;;;17.20;99.90;;;;;;4184685;28;20241;-95
2022/09/09 07:52:05;;;;;;;7.78;1.70;;;17.40;99.90;;;;;;4167630;28;20259;-95
2022/09/09 07:54:10;;;;;;;8.52;1.45;;;17.50;99.90;;;;;;4183475;28;20172;-94
2022/09/09 07:56:23;;;;;;;9.32;1.45;;;17.70;99.90;;;;;;4170993;28;20168;-96
2022/09/09 07:58:49;;;;;;;10.15;1.90;;;17.90;99.90;;;;;;4184251;28;20182;-94
2022/09/09 08:00:50;;;;;;;12.95;1.70;;;17.90;99.90;;;;;;4166503;28;20680;-96
2022/09/09 08:02:53;;;;;;;11.50;1.58;;;18.00;99.90;;;;;;4168480;28;20183;-95
2022/09/09 08:04:56;;;;;;;8.50;1.55;;;18.10;99.90;;;;;;4184243;28;20183;-95
2022/09/09 08:06:59;;;;;;;10.20;1.85;;;18.30;99.90;;;;;;4167196;28;20645;-94
2022/09/09 08:09:02;;;;;;;8.05;1.80;;;18.40;99.90;;;;;;4166521;28;20187;-92
2022/09/09 08:11:09;;;;;;;8.65;1.67;;;18.50;99.90;;;;;;4166347;28;20288;-94
2022/09/09 08:13:10;;;;;;;9.63;1.20;;;18.30;99.90;;;;;;4166665;28;20176;-94
2022/09/09 08:15:12;;;;;;;8.30;1.50;;;18.40;99.90;;;;;;4166497;28;20321;-92
2022/09/09 08:17:15;;;;;;;13.02;1.80;;;18.30;99.90;;;;;;4166677;28;20258;-93
2022/09/09 08:19:17;;;;;;;7.97;1.20;;;18.20;99.90;;;;;;4166634;28;20219;-96
2022/09/09 08:21:39;;;;;;;13.00;1.80;;;18.00;99.90;;;;;;4166328;28;20220;-95
2022/09/09 08:23:41;;;;;;;6.82;1.38;;;17.90;99.90;;;;;;4166367;28;20176;-94
2022/09/09 08:25:44;;;;;;;11.18;1.67;;;17.80;99.90;;;;;;4166446;28;20271;-95
2022/09/09 08:27:48;;;;;;;9.02;1.58;;;17.80;99.90;;;;;;4183185;28;20164;-95
2022/09/09 08:29:49;;;;;;;9.75;1.50;;;17.70;99.90;;;;;;4166587;28;20172;-95
2022/09/09 08:31:54;;;;;;;17.10;1.77;;;17.70;99.90;;;;;;4167006;28;20202;-94
2022/09/09 08:33:59;;;;;;;12.23;1.88;;;17.50;99.90;;;;;;4165977;28;20575;-96
2022/09/09 08:36:03;;;;;;;11.18;1.70;;;17.50;99.90;;;;;;4165880;28;20640;-94
2022/09/09 08:38:04;;;;;;;10.20;1.48;;;17.50;99.90;;;;;;4183237;28;20177;-95
2022/09/09 08:40:12;;;;;;;12.23;1.67;;;17.40;99.90;;;;;;4166542;28;20199;-96
2022/09/09 08:42:32;;;;;;;8.05;1.38;;;17.30;99.90;;;;;;4165949;28;20171;-94
2022/09/09 08:48:08;;;;;;;10.13;1.45;;;17.20;99.90;;;;;;4181800;28;20183;-96
2022/09/09 08:50:35;;;;;;;8.13;1.60;;;17.30;99.90;;;;;;4182737;28;20656;-95
2022/09/09 08:53:02;;;;;;;9.32;1.67;;;17.20;99.90;;;;;;4167803;28;20172;-91
2022/09/09 08:55:26;;;;;;;12.02;2.00;;;17.00;99.90;;;;;;4165836;28;20675;-94
2022/09/09 08:57:31;;;;;;;6.20;1.45;;;17.20;99.90;;;;;;4166259;28;20234;-95
2022/09/09 08:59:37;;;;;;;10.50;1.52;;;17.20;99.90;;;;;;4166224;28;20176;-94
2022/09/09 09:02:08;;;;;;;7.85;1.50;;;17.20;99.90;;;;;;4166560;28;20680;-93
2022/09/09 09:04:24;;;;;;;10.93;1.88;;;17.20;99.90;;;;;;4166266;28;20175;-95
2022/09/09 09:07:00;;;;;;;10.63;1.80;;;17.20;99.90;;;;;;4183182;28;20177;-93
2022/09/09 09:09:22;;;;;;;13.15;1.98;;;17.30;99.90;;;;;;4182069;28;20186;-94
2022/09/09 09:11:23;;;;;;;6.65;1.40;;;17.50;99.90;;;;;;4165413;28;20192;-92
2022/09/09 09:13:36;;;;;;;11.05;1.45;;;17.50;99.90;;;;;;4165381;28;20259;-93
2022/09/09 09:15:38;;;;;;;9.80;1.73;;;17.50;99.90;;;;;;4181886;28;20171;-93
2022/09/09 09:17:43;;;;;;;8.90;1.60;;;17.50;99.90;;;;;;4182436;28;20171;-95
2022/09/09 09:19:46;;;;;;;8.95;1.58;;;17.50;99.90;;;;;;4182900;28;20192;-96
2022/09/09 09:21:51;;;;;;;7.90;1.58;;;17.60;99.90;;;;;;4184997;28;20261;-93
2022/09/09 09:24:15;;;;;;;7.68;1.83;;;17.60;99.90;;;;;;4166354;28;20195;-96
2022/09/09 09:26:17;;;;;;;10.57;2.10;;;17.50;99.90;;;;;;4166086;28;20168;-93
2022/09/09 09:28:25;;;;;;;10.57;1.58;;;17.60;99.90;;;;;;4165839;28;20267;-94
2022/09/09 09:30:38;;;;;;;9.10;1.65;;;17.60;99.90;;;;;;4165481;28;20200;-95
2022/09/09 09:32:58;;;;;;;9.43;1.60;;;17.60;99.90;;;;;;4169194;28;20180;-96
2022/09/09 09:35:04;;;;;;;10.27;1.70;;;17.60;99.90;;;;;;4167062;28;20168;-93
2022/09/09 09:37:29;;;;;;;9.55;1.33;;;17.50;99.90;;;;;;4165491;28;20195;-96
2022/09/09 09:39:38;;;;;;;9.10;1.45;;;17.50;99.90;;;;;;4160983;28;20668;-95
2022/09/09 09:41:53;;;;;;;11.95;1.40;;;17.60;99.90;;;;;;4166319;28;20262;-96
2022/09/09 09:43:54;;;;;;;7.40;1.30;;;17.50;99.90;;;;;;4166856;28;20168;-94
2022/09/09 09:45:59;;;;;;;9.05;1.10;;;17.50;99.90;;;;;;4165984;28;20168;-94
2022/09/09 09:48:08;;;;;;;7.60;1.45;;;17.50;99.90;;;;;;4166182;28;20172;-95
2022/09/09 09:50:20;;;;;;;8.48;1.65;;;17.60;99.90;;;;;;4168111;28;20204;-94
2022/09/09 09:52:24;;;;;;;11.52;1.42;;;17.60;99.90;;;;;;4166257;28;20175;-93
2022/09/09 09:54:37;;;;;;;6.88;1.60;;;17.60;99.90;;;;;;4165237;28;20179;-95
2022/09/09 09:56:41;;;;;;;7.47;1.45;;;17.60;99.90;;;;;;4165326;28;20176;-95
2022/09/09 09:58:50;;;;;;;8.55;1.50;;;17.70;99.90;;;;;;4165357;28;20176;-96
2022/09/09 10:00:54;;;;;;;8.95;1.50;;;17.80;99.90;;;;;;4164961;28;20635;-93
2022/09/09 10:03:01;;;;;;;9.77;1.52;;;17.90;99.90;;;;;;4165353;28;20176;-94
2022/09/09 10:05:14;;;;;;;11.07;1.48;;;18.00;99.90;;;;;;4165291;28;20174;-94
2022/09/09 10:07:22;;;;;;;7.32;1.38;;;17.90;99.90;;;;;;4164979;28;20168;-95
2022/09/09 10:09:23;;;;;;;7.25;1.30;;;18.10;99.90;;;;;;4165251;28;20176;-93
2022/09/09 10:11:50;;;;;;;9.98;1.08;;;18.20;99.90;;;;;;4165129;28;20695;-94
2022/09/09 10:14:22;;;;;;;10.00;1.38;;;18.30;99.90;;;;;;4165292;28;20182;-94
2022/09/09 10:16:52;;;;;;;12.15;1.70;;;18.40;99.90;;;;;;4165029;28;20266;-94
2022/09/09 10:19:15;;;;;;;8.43;1.40;;;18.90;99.90;;;;;;4181340;28;20716;-92
2022/09/09 10:21:34;;;;;;;7.30;1.20;;;19.00;99.90;;;;;;4165221;28;20665;-94
2022/09/09 10:24:00;;;;;;;8.55;1.85;;;19.20;99.90;;;;;;4165314;28;20611;-95
2022/09/09 10:26:33;;;;;;;8.70;1.20;;;19.20;99.90;;;;;;4181733;28;20171;-95
2022/09/09 10:28:58;;;;;;;7.07;1.30;;;19.20;99.90;;;;;;4158936;28;20674;-94
2022/09/09 10:31:14;;;;;;;7.88;1.80;;;19.50;99.90;;;;;;4165015;28;20200;-96
2022/09/09 10:33:37;;;;;;;12.73;1.65;;;19.70;99.90;;;;;;4164670;28;20238;-93
2022/09/09 10:35:51;;;;;;;5.95;1.35;;;19.60;99.90;;;;;;4146125;28;20188;-96
2022/09/09 10:38:04;;;;;;;8.85;1.58;;;19.60;99.90;;;;;;4164995;28;20171;-91
2022/09/09 10:40:33;;;;;;;11.20;1.35;;;19.60;99.90;;;;;;4164606;28;20250;-93
2022/09/09 10:42:34;;;;;;;9.77;1.50;;;19.60;99.90;;;;;;4164724;28;20187;-92
2022/09/09 10:44:58;;;;;;;8.38;1.20;;;19.70;99.90;;;;;;4164292;28;20267;-92
2022/09/09 10:47:32;;;;;;;9.25;1.38;;;19.60;99.90;;;;;;4164558;28;20190;-91
2022/09/09 10:49:42;;;;;;;10.32;1.65;;;19.40;99.90;;;;;;4164345;28;20167;-91
2022/09/09 10:51:55;;;;;;;8.15;1.67;;;19.20;99.90;;;;;;4164285;28;20199;-91
2022/09/09 10:54:22;;;;;;;6.72;1.13;;;19.30;99.90;;;;;;4164733;28;20183;-92
2022/09/09 10:56:24;;;;;;;6.65;1.30;;;19.50;99.90;;;;;;4146966;28;20189;-91
2022/09/09 10:58:35;;;;;;;9.75;1.40;;;19.50;99.90;;;;;;4165937;28;20183;-93
2022/09/09 11:00:45;;;;;;;8.00;1.50;;;19.60;99.90;;;;;;4168424;28;20220;-91
2022/09/09 11:02:55;;;;;;;6.13;1.15;;;19.80;99.90;;;;;;4167570;28;20163;-95
2022/09/09 11:05:18;;;;;;;4.25;1.15;;;19.80;99.90;;;;;;4167851;28;20681;-92
2022/09/09 11:07:30;;;;;;;6.97;1.15;;;19.80;99.90;;;;;;4167497;28;20644;-95